sensor_id;sensor_type;location;lat;lon;timestamp;temperature;humidity
3281;DHT22;1652;51.318;6.202;2022-10-17T00:00:36;14.40;99.90
3281;DHT22;1652;51.318;6.202;2022-10-17T00:03:03;14.40;99.90
3281;DHT22;1652;51.318;6.202;2022-10-17T00:05:29;14.40;99.90
3281;DHT22;1652;51.318;6.202;2022-10-17T00:07:56;14.30;99.90
3281;DHT22;1652;51.318;6.202;2022-10-17T00:10:23;14.30;99.90
3281;DHT22;1652;51.318;6.202;2022-10-17T00:12:51;14.30;99.90
3281;DHT22;1652;51.318;6.202;2022-10-17T00:15:19;14.30;99.90
3281;DHT22;1652;51.318;6.202;2022-10-17T00:17:46;14.30;99.90
3281;DHT22;1652;51.318;6.202;2022-10-17T00:20:14;14.30;99.90
3281;DHT22;1652;51.318;6.202;2022-10-17T00:22:41;14.40;99.90
3281;DHT22;1652;51.318;6.202;2022-10-17T00:25:08;14.30;99.90
3281;DHT22;1652;51.318;6.202;2022-10-17T00:27:36;14.30;99.90
3281;DHT22;1652;51.318;6.202;2022-10-17T00:30:05;14.20;99.90
3281;DHT22;1652;51.318;6.202;2022-10-17T00:32:33;14.10;99.90
3281;DHT22;1652;51.318;6.202;2022-10-17T00:35:00;14.20;99.90
3281;DHT22;1652;51.318;6.202;2022-10-17T00:37:28;14.30;99.90
3281;DHT22;1652;51.318;6.202;2022-10-17T00:39:55;14.30;99.90
3281;DHT22;1652;51.318;6.202;2022-10-17T00:42:22;14.40;99.90
3281;DHT22;1652;51.318;6.202;2022-10-17T00:45:01;14.40;99.90
3281;DHT22;1652;51.318;6.202;2022-10-17T00:47:29;14.30;99.90
3281;DHT22;1652;51.318;6.202;2022-10-17T00:49:57;14.40;99.90
3281;DHT22;1652;51.318;6.202;2022-10-17T00:52:28;14.30;99.90
3281;DHT22;1652;51.318;6.202;2022-10-17T00:55:07;14.40;99.90
3281;DHT22;1652;51.318;6.202;2022-10-17T00:57:34;14.30;99.90
3281;DHT22;1652;51.318;6.202;2022-10-17T01:00:05;14.30;99.90
3281;DHT22;1652;51.318;6.202;2022-10-17T01:02:33;14.30;99.90
3281;DHT22;1652;51.318;6.202;2022-10-17T01:05:01;14.20;99.90
3281;DHT22;1652;51.318;6.202;2022-10-17T01:07:28;14.10;99.90
3281;DHT22;1652;51.318;6.202;2022-10-17T01:10:03;14.20;99.90
3281;DHT22;1652;51.318;6.202;2022-10-17T01:26:16;14.20;99.90
3281;DHT22;1652;51.318;6.202;2022-10-17T01:32:03;14.30;99.90
3281;DHT22;1652;51.318;6.202;2022-10-17T01:37:11;14.30;99.90
3281;DHT22;1652;51.318;6.202;2022-10-17T01:45:21;14.10;99.90
3281;DHT22;1652;51.318;6.202;2022-10-17T01:47:52;14.10;99.90
3281;DHT22;1652;51.318;6.202;2022-10-17T01:50:27;14.10;99.90
3281;DHT22;1652;51.318;6.202;2022-10-17T01:53:01;14.20;99.90
3281;DHT22;1652;51.318;6.202;2022-10-17T01:55:39;14.20;99.90
3281;DHT22;1652;51.318;6.202;2022-10-17T01:58:30;14.30;99.90
3281;DHT22;1652;51.318;6.202;2022-10-17T02:01:02;14.30;99.90
3281;DHT22;1652;51.318;6.202;2022-10-17T02:03:31;14.30;99.90
3281;DHT22;1652;51.318;6.202;2022-10-17T02:06:00;14.30;99.90
3281;DHT22;1652;51.318;6.202;2022-10-17T02:08:44;14.40;99.90
3281;DHT22;1652;51.318;6.202;2022-10-17T02:11:22;14.40;99.90
3281;DHT22;1652;51.318;6.202;2022-10-17T02:16:41;14.30;99.90
3281;DHT22;1652;51.318;6.202;2022-10-17T02:21:52;14.20;99.90
3281;DHT22;1652;51.318;6.202;2022-10-17T02:27:54;14.30;99.90
3281;DHT22;1652;51.318;6.202;2022-10-17T02:30:34;14.30;99.90
3281;DHT22;1652;51.318;6.202;2022-10-17T02:35:44;14.20;99.90
3281;DHT22;1652;51.318;6.202;2022-10-17T02:38:13;14.20;99.90
3281;DHT22;1652;51.318;6.202;2022-10-17T02:40:43;14.30;99.90
3281;DHT22;1652;51.318;6.202;2022-10-17T02:43:12;14.30;99.90
3281;DHT22;1652;51.318;6.202;2022-10-17T02:45:40;14.40;99.90
3281;DHT22;1652;51.318;6.202;2022-10-17T02:56:41;14.30;99.90
3281;DHT22;1652;51.318;6.202;2022-10-17T02:59:11;14.30;99.90
3281;DHT22;1652;51.318;6.202;2022-10-17T03:01:40;14.30;99.90
3281;DHT22;1652;51.318;6.202;2022-10-17T03:04:09;14.30;99.90
3281;DHT22;1652;51.318;6.202;2022-10-17T03:06:37;14.30;99.90
3281;DHT22;1652;51.318;6.202;2022-10-17T03:09:05;14.30;99.90
3281;DHT22;1652;51.318;6.202;2022-10-17T03:11:32;14.30;99.90
3281;DHT22;1652;51.318;6.202;2022-10-17T03:13:59;14.30;99.90
3281;DHT22;1652;51.318;6.202;2022-10-17T03:16:26;14.30;99.90
3281;DHT22;1652;51.318;6.202;2022-10-17T03:18:54;14.30;99.90
3281;DHT22;1652;51.318;6.202;2022-10-17T03:21:21;14.30;99.90
3281;DHT22;1652;51.318;6.202;2022-10-17T03:23:48;14.30;99.90
3281;DHT22;1652;51.318;6.202;2022-10-17T03:26:17;14.30;99.90
3281;DHT22;1652;51.318;6.202;2022-10-17T03:28:44;14.30;99.90
3281;DHT22;1652;51.318;6.202;2022-10-17T03:31:15;14.30;99.90
3281;DHT22;1652;51.318;6.202;2022-10-17T03:33:43;14.30;99.90
3281;DHT22;1652;51.318;6.202;2022-10-17T03:36:15;14.20;99.90
3281;DHT22;1652;51.318;6.202;2022-10-17T03:38:45;14.20;99.90
3281;DHT22;1652;51.318;6.202;2022-10-17T03:41:12;14.20;99.90
3281;DHT22;1652;51.318;6.202;2022-10-17T03:43:39;14.20;99.90
3281;DHT22;1652;51.318;6.202;2022-10-17T03:46:07;14.10;99.90
3281;DHT22;1652;51.318;6.202;2022-10-17T03:48:35;14.00;99.90
3281;DHT22;1652;51.318;6.202;2022-10-17T03:51:05;14.00;99.90
3281;DHT22;1652;51.318;6.202;2022-10-17T03:53:36;14.00;99.90
3281;DHT22;1652;51.318;6.202;2022-10-17T03:56:24;14.00;99.90
3281;DHT22;1652;51.318;6.202;2022-10-17T03:59:13;14.10;99.90
3281;DHT22;1652;51.318;6.202;2022-10-17T04:01:45;14.10;99.90
3281;DHT22;1652;51.318;6.202;2022-10-17T04:04:12;14.10;99.90
3281;DHT22;1652;51.318;6.202;2022-10-17T04:06:39;14.10;99.90
3281;DHT22;1652;51.318;6.202;2022-10-17T04:09:06;14.30;99.90
3281;DHT22;1652;51.318;6.202;2022-10-17T04:11:42;14.30;99.90
3281;DHT22;1652;51.318;6.202;2022-10-17T04:14:09;14.30;99.90
3281;DHT22;1652;51.318;6.202;2022-10-17T04:16:38;14.40;99.90
3281;DHT22;1652;51.318;6.202;2022-10-17T04:19:11;14.50;99.90
3281;DHT22;1652;51.318;6.202;2022-10-17T04:21:42;14.40;99.90
3281;DHT22;1652;51.318;6.202;2022-10-17T04:24:10;14.40;99.90
3281;DHT22;1652;51.318;6.202;2022-10-17T04:27:13;14.40;99.90
3281;DHT22;1652;51.318;6.202;2022-10-17T04:29:43;14.50;99.90
3281;DHT22;1652;51.318;6.202;2022-10-17T04:32:21;14.40;99.90
3281;DHT22;1652;51.318;6.202;2022-10-17T04:35:01;14.30;99.90
3281;DHT22;1652;51.318;6.202;2022-10-17T04:37:28;14.30;99.90
3281;DHT22;1652;51.318;6.202;2022-10-17T04:39:57;14.40;99.90
3281;DHT22;1652;51.318;6.202;2022-10-17T04:42:29;14.50;99.90
3281;DHT22;1652;51.318;6.202;2022-10-17T04:44:56;14.50;99.90
3281;DHT22;1652;51.318;6.202;2022-10-17T04:47:25;14.40;99.90
3281;DHT22;1652;51.318;6.202;2022-10-17T04:49:51;14.40;99.90
3281;DHT22;1652;51.318;6.202;2022-10-17T04:52:20;14.40;99.90
3281;DHT22;1652;51.318;6.202;2022-10-17T04:54:48;14.40;99.90
3281;DHT22;1652;51.318;6.202;2022-10-17T04:57:17;14.30;99.90
3281;DHT22;1652;51.318;6.202;2022-10-17T04:59:54;14.30;99.90
3281;DHT22;1652;51.318;6.202;2022-10-17T05:02:44;14.30;99.90
3281;DHT22;1652;51.318;6.202;2022-10-17T05:05:11;14.30;99.90
3281;DHT22;1652;51.318;6.202;2022-10-17T05:07:39;14.30;99.90
3281;DHT22;1652;51.318;6.202;2022-10-17T05:10:12;14.30;99.90
3281;DHT22;1652;51.318;6.202;2022-10-17T05:12:42;14.40;99.90
3281;DHT22;1652;51.318;6.202;2022-10-17T05:15:09;14.40;99.90
3281;DHT22;1652;51.318;6.202;2022-10-17T05:17:36;14.40;99.90
3281;DHT22;1652;51.318;6.202;2022-10-17T05:20:04;14.30;99.90
3281;DHT22;1652;51.318;6.202;2022-10-17T05:22:32;14.20;99.90
3281;DHT22;1652;51.318;6.202;2022-10-17T05:25:05;14.20;99.90
3281;DHT22;1652;51.318;6.202;2022-10-17T05:27:32;14.20;99.90
3281;DHT22;1652;51.318;6.202;2022-10-17T05:30:00;14.20;99.90
3281;DHT22;1652;51.318;6.202;2022-10-17T05:32:29;14.10;99.90
3281;DHT22;1652;51.318;6.202;2022-10-17T05:34:57;14.20;99.90
3281;DHT22;1652;51.318;6.202;2022-10-17T05:37:25;14.20;99.90
3281;DHT22;1652;51.318;6.202;2022-10-17T05:39:54;14.20;99.90
3281;DHT22;1652;51.318;6.202;2022-10-17T05:42:21;14.30;99.90
3281;DHT22;1652;51.318;6.202;2022-10-17T05:44:48;14.40;99.90
3281;DHT22;1652;51.318;6.202;2022-10-17T05:47:17;14.40;99.90
3281;DHT22;1652;51.318;6.202;2022-10-17T05:49:44;14.40;99.90
3281;DHT22;1652;51.318;6.202;2022-10-17T05:52:21;14.40;99.90
3281;DHT22;1652;51.318;6.202;2022-10-17T05:54:59;14.30;99.90
3281;DHT22;1652;51.318;6.202;2022-10-17T05:57:26;14.30;99.90
3281;DHT22;1652;51.318;6.202;2022-10-17T05:59:53;14.30;99.90
3281;DHT22;1652;51.318;6.202;2022-10-17T06:02:21;14.30;99.90
3281;DHT22;1652;51.318;6.202;2022-10-17T06:04:48;14.20;99.90
3281;DHT22;1652;51.318;6.202;2022-10-17T06:07:18;14.20;99.90
3281;DHT22;1652;51.318;6.202;2022-10-17T06:09:46;14.30;99.90
3281;DHT22;1652;51.318;6.202;2022-10-17T06:12:13;14.30;99.90
3281;DHT22;1652;51.318;6.202;2022-10-17T06:14:41;14.40;99.90
3281;DHT22;1652;51.318;6.202;2022-10-17T06:17:10;14.50;99.90
3281;DHT22;1652;51.318;6.202;2022-10-17T06:19:42;14.60;99.90
3281;DHT22;1652;51.318;6.202;2022-10-17T06:22:13;14.80;99.90
3281;DHT22;1652;51.318;6.202;2022-10-17T06:24:40;14.80;99.90
3281;DHT22;1652;51.318;6.202;2022-10-17T06:27:08;14.90;99.90
3281;DHT22;1652;51.318;6.202;2022-10-17T06:29:38;14.90;99.90
3281;DHT22;1652;51.318;6.202;2022-10-17T06:32:06;15.00;99.90
3281;DHT22;1652;51.318;6.202;2022-10-17T06:34:39;15.00;99.90
3281;DHT22;1652;51.318;6.202;2022-10-17T06:37:06;14.90;99.90
3281;DHT22;1652;51.318;6.202;2022-10-17T06:39:34;14.90;99.90
3281;DHT22;1652;51.318;6.202;2022-10-17T06:42:06;15.00;99.90
3281;DHT22;1652;51.318;6.202;2022-10-17T06:44:53;14.90;99.90
3281;DHT22;1652;51.318;6.202;2022-10-17T06:47:38;15.00;99.90
3281;DHT22;1652;51.318;6.202;2022-10-17T06:50:20;15.00;99.90
3281;DHT22;1652;51.318;6.202;2022-10-17T06:52:58;15.10;99.90
3281;DHT22;1652;51.318;6.202;2022-10-17T06:55:51;15.20;99.90
3281;DHT22;1652;51.318;6.202;2022-10-17T06:58:36;15.40;99.90
3281;DHT22;1652;51.318;6.202;2022-10-17T07:01:11;15.60;99.90
3281;DHT22;1652;51.318;6.202;2022-10-17T07:03:39;16.00;99.90
3281;DHT22;1652;51.318;6.202;2022-10-17T07:06:07;16.40;99.90
3281;DHT22;1652;51.318;6.202;2022-10-17T07:08:40;16.40;99.90
3281;DHT22;1652;51.318;6.202;2022-10-17T07:11:16;16.60;99.90
3281;DHT22;1652;51.318;6.202;2022-10-17T07:13:44;16.80;99.90
3281;DHT22;1652;51.318;6.202;2022-10-17T07:16:11;16.90;99.90
3281;DHT22;1652;51.318;6.202;2022-10-17T07:18:40;17.00;99.90
3281;DHT22;1652;51.318;6.202;2022-10-17T07:21:08;17.00;99.90
3281;DHT22;1652;51.318;6.202;2022-10-17T07:23:36;16.90;99.90
3281;DHT22;1652;51.318;6.202;2022-10-17T07:26:12;16.90;99.90
3281;DHT22;1652;51.318;6.202;2022-10-17T07:28:43;16.80;99.90
3281;DHT22;1652;51.318;6.202;2022-10-17T07:31:23;16.80;99.90
3281;DHT22;1652;51.318;6.202;2022-10-17T07:33:50;16.80;99.90
3281;DHT22;1652;51.318;6.202;2022-10-17T07:36:17;16.90;99.90
3281;DHT22;1652;51.318;6.202;2022-10-17T07:38:46;17.20;99.90
3281;DHT22;1652;51.318;6.202;2022-10-17T07:41:13;17.60;99.90
3281;DHT22;1652;51.318;6.202;2022-10-17T07:43:47;18.10;99.90
3281;DHT22;1652;51.318;6.202;2022-10-17T07:46:18;18.40;99.90
3281;DHT22;1652;51.318;6.202;2022-10-17T07:48:45;18.50;99.90
3281;DHT22;1652;51.318;6.202;2022-10-17T07:51:13;18.80;99.90
3281;DHT22;1652;51.318;6.202;2022-10-17T07:53:39;18.90;99.90
3281;DHT22;1652;51.318;6.202;2022-10-17T07:56:14;19.20;99.90
3281;DHT22;1652;51.318;6.202;2022-10-17T07:58:41;19.30;99.90
3281;DHT22;1652;51.318;6.202;2022-10-17T08:01:09;19.50;99.90
3281;DHT22;1652;51.318;6.202;2022-10-17T08:03:46;19.60;99.90
3281;DHT22;1652;51.318;6.202;2022-10-17T08:06:16;19.80;99.90
3281;DHT22;1652;51.318;6.202;2022-10-17T08:08:43;20.10;99.90
3281;DHT22;1652;51.318;6.202;2022-10-17T08:11:12;20.30;99.90
3281;DHT22;1652;51.318;6.202;2022-10-17T08:13:40;20.40;99.90
3281;DHT22;1652;51.318;6.202;2022-10-17T08:16:09;20.50;99.90
3281;DHT22;1652;51.318;6.202;2022-10-17T08:18:38;20.50;99.90
3281;DHT22;1652;51.318;6.202;2022-10-17T08:21:05;20.20;99.90
3281;DHT22;1652;51.318;6.202;2022-10-17T08:23:34;20.20;99.90
3281;DHT22;1652;51.318;6.202;2022-10-17T08:26:03;20.10;99.90
3281;DHT22;1652;51.318;6.202;2022-10-17T08:28:33;19.90;99.90
3281;DHT22;1652;51.318;6.202;2022-10-17T08:31:03;19.70;99.90
3281;DHT22;1652;51.318;6.202;2022-10-17T08:33:30;19.50;99.90
3281;DHT22;1652;51.318;6.202;2022-10-17T08:36:02;19.40;99.90
3281;DHT22;1652;51.318;6.202;2022-10-17T08:38:30;19.30;99.90
3281;DHT22;1652;51.318;6.202;2022-10-17T08:41:04;19.20;99.90
3281;DHT22;1652;51.318;6.202;2022-10-17T08:43:41;19.20;99.90
3281;DHT22;1652;51.318;6.202;2022-10-17T08:46:10;19.30;99.90
3281;DHT22;1652;51.318;6.202;2022-10-17T08:48:41;19.30;99.90
3281;DHT22;1652;51.318;6.202;2022-10-17T08:51:29;19.30;99.90
3281;DHT22;1652;51.318;6.202;2022-10-17T08:54:05;19.30;99.90
3281;DHT22;1652;51.318;6.202;2022-10-17T08:56:41;19.10;99.90
3281;DHT22;1652;51.318;6.202;2022-10-17T08:59:28;19.10;99.90
3281;DHT22;1652;51.318;6.202;2022-10-17T09:18:32;19.50;99.90
3281;DHT22;1652;51.318;6.202;2022-10-17T09:21:24;19.30;99.90
3281;DHT22;1652;51.318;6.202;2022-10-17T09:24:00;19.20;99.90
3281;DHT22;1652;51.318;6.202;2022-10-17T09:26:41;19.20;99.90
3281;DHT22;1652;51.318;6.202;2022-10-17T09:29:24;19.20;99.90
3281;DHT22;1652;51.318;6.202;2022-10-17T09:32:04;19.20;99.90
3281;DHT22;1652;51.318;6.202;2022-10-17T09:34:34;19.20;99.90
3281;DHT22;1652;51.318;6.202;2022-10-17T09:37:01;19.20;99.90
3281;DHT22;1652;51.318;6.202;2022-10-17T09:39:29;19.10;99.90
3281;DHT22;1652;51.318;6.202;2022-10-17T09:42:00;19.00;99.90
3281;DHT22;1652;51.318;6.202;2022-10-17T09:44:40;18.90;99.90
3281;DHT22;1652;51.318;6.202;2022-10-17T09:49:40;18.60;99.90
3281;DHT22;1652;51.318;6.202;2022-10-17T09:52:15;18.50;99.90
3281;DHT22;1652;51.318;6.202;2022-10-17T09:54:48;18.40;99.90
3281;DHT22;1652;51.318;6.202;2022-10-17T09:57:16;18.40;99.90
3281;DHT22;1652;51.318;6.202;2022-10-17T09:59:46;18.40;99.90
3281;DHT22;1652;51.318;6.202;2022-10-17T10:02:19;18.50;99.90
3281;DHT22;1652;51.318;6.202;2022-10-17T10:05:04;18.60;99.90
3281;DHT22;1652;51.318;6.202;2022-10-17T10:07:37;18.70;99.90
3281;DHT22;1652;51.318;6.202;2022-10-17T10:10:21;18.90;99.90
3281;DHT22;1652;51.318;6.202;2022-10-17T10:13:05;18.80;99.90
3281;DHT22;1652;51.318;6.202;2022-10-17T10:15:36;18.70;99.90
3281;DHT22;1652;51.318;6.202;2022-10-17T10:21:14;18.70;99.90
3281;DHT22;1652;51.318;6.202;2022-10-17T10:23:43;18.60;99.90
3281;DHT22;1652;51.318;6.202;2022-10-17T10:29:00;18.40;99.90
3281;DHT22;1652;51.318;6.202;2022-10-17T10:31:34;18.30;99.90
3281;DHT22;1652;51.318;6.202;2022-10-17T10:36:49;18.30;99.90
3281;DHT22;1652;51.318;6.202;2022-10-17T10:39:46;18.30;99.90
3281;DHT22;1652;51.318;6.202;2022-10-17T10:42:24;18.60;99.90
3281;DHT22;1652;51.318;6.202;2022-10-17T10:44:53;18.60;99.90
3281;DHT22;1652;51.318;6.202;2022-10-17T10:47:27;18.40;99.90
3281;DHT22;1652;51.318;6.202;2022-10-17T10:50:20;18.20;99.90
3281;DHT22;1652;51.318;6.202;2022-10-17T10:55:26;17.90;99.90
3281;DHT22;1652;51.318;6.202;2022-10-17T10:57:57;17.90;99.90
3281;DHT22;1652;51.318;6.202;2022-10-17T11:00:26;17.90;99.90
3281;DHT22;1652;51.318;6.202;2022-10-17T11:03:08;18.00;99.90
3281;DHT22;1652;51.318;6.202;2022-10-17T11:05:49;18.20;99.90
3281;DHT22;1652;51.318;6.202;2022-10-17T11:11:34;18.40;99.90
3281;DHT22;1652;51.318;6.202;2022-10-17T11:17:10;18.40;99.90
3281;DHT22;1652;51.318;6.202;2022-10-17T11:19:58;18.40;99.90
3281;DHT22;1652;51.318;6.202;2022-10-17T11:22:31;18.50;99.90
3281;DHT22;1652;51.318;6.202;2022-10-17T11:25:05;18.70;99.90
3281;DHT22;1652;51.318;6.202;2022-10-17T11:27:38;18.80;99.90
3281;DHT22;1652;51.318;6.202;2022-10-17T11:30:05;18.80;99.90
3281;DHT22;1652;51.318;6.202;2022-10-17T11:32:43;18.80;99.90
3281;DHT22;1652;51.318;6.202;2022-10-17T11:35:23;18.70;99.90
3281;DHT22;1652;51.318;6.202;2022-10-17T11:38:15;18.60;99.90
3281;DHT22;1652;51.318;6.202;2022-10-17T11:40:48;18.50;99.90
3281;DHT22;1652;51.318;6.202;2022-10-17T11:43:26;18.50;99.90
3281;DHT22;1652;51.318;6.202;2022-10-17T11:46:00;18.50;99.90
3281;DHT22;1652;51.318;6.202;2022-10-17T11:48:33;18.40;99.90
3281;DHT22;1652;51.318;6.202;2022-10-17T11:51:12;18.30;99.90
3281;DHT22;1652;51.318;6.202;2022-10-17T11:56:44;18.20;99.90
3281;DHT22;1652;51.318;6.202;2022-10-17T11:59:30;18.30;99.90
3281;DHT22;1652;51.318;6.202;2022-10-17T12:02:08;18.30;99.90
3281;DHT22;1652;51.318;6.202;2022-10-17T12:07:23;18.40;99.90
3281;DHT22;1652;51.318;6.202;2022-10-17T12:10:23;18.40;99.90
3281;DHT22;1652;51.318;6.202;2022-10-17T12:12:45;18.50;99.90
3281;DHT22;1652;51.318;6.202;2022-10-17T12:18:02;18.70;99.90
3281;DHT22;1652;51.318;6.202;2022-10-17T12:20:30;18.70;99.90
3281;DHT22;1652;51.318;6.202;2022-10-17T12:25:30;18.70;99.90
3281;DHT22;1652;51.318;6.202;2022-10-17T12:30:32;18.70;99.90
3281;DHT22;1652;51.318;6.202;2022-10-17T12:33:37;18.80;99.90
3281;DHT22;1652;51.318;6.202;2022-10-17T12:38:45;18.90;99.90
3281;DHT22;1652;51.318;6.202;2022-10-17T12:41:17;18.90;99.90
3281;DHT22;1652;51.318;6.202;2022-10-17T12:52:24;18.50;99.90
3281;DHT22;1652;51.318;6.202;2022-10-17T12:54:59;18.50;99.90
3281;DHT22;1652;51.318;6.202;2022-10-17T12:57:57;18.50;99.90
3281;DHT22;1652;51.318;6.202;2022-10-17T13:03:33;18.50;99.90
3281;DHT22;1652;51.318;6.202;2022-10-17T13:06:05;18.50;99.90
3281;DHT22;1652;51.318;6.202;2022-10-17T13:08:38;18.50;99.90
3281;DHT22;1652;51.318;6.202;2022-10-17T13:11:09;18.50;99.90
3281;DHT22;1652;51.318;6.202;2022-10-17T13:13:46;18.50;99.90
3281;DHT22;1652;51.318;6.202;2022-10-17T13:16:36;18.40;99.90
3281;DHT22;1652;51.318;6.202;2022-10-17T13:19:16;18.40;99.90
3281;DHT22;1652;51.318;6.202;2022-10-17T13:22:14;18.40;99.90
3281;DHT22;1652;51.318;6.202;2022-10-17T13:24:42;18.30;99.90
3281;DHT22;1652;51.318;6.202;2022-10-17T13:27:29;18.30;99.90
3281;DHT22;1652;51.318;6.202;2022-10-17T13:29:58;18.30;99.90
3281;DHT22;1652;51.318;6.202;2022-10-17T13:32:34;18.30;99.90
3281;DHT22;1652;51.318;6.202;2022-10-17T13:35:13;18.30;99.90
3281;DHT22;1652;51.318;6.202;2022-10-17T13:37:43;18.30;99.90
3281;DHT22;1652;51.318;6.202;2022-10-17T13:40:26;18.30;99.90
3281;DHT22;1652;51.318;6.202;2022-10-17T13:43:19;18.20;99.90
3281;DHT22;1652;51.318;6.202;2022-10-17T13:46:15;18.30;99.90
3281;DHT22;1652;51.318;6.202;2022-10-17T13:48:57;18.30;99.90
3281;DHT22;1652;51.318;6.202;2022-10-17T13:51:26;18.30;99.90
3281;DHT22;1652;51.318;6.202;2022-10-17T13:53:53;18.40;99.90
3281;DHT22;1652;51.318;6.202;2022-10-17T13:56:24;18.40;99.90
3281;DHT22;1652;51.318;6.202;2022-10-17T14:11:38;18.40;99.90
3281;DHT22;1652;51.318;6.202;2022-10-17T14:14:17;18.30;99.90
3281;DHT22;1652;51.318;6.202;2022-10-17T14:16:44;18.30;99.90
3281;DHT22;1652;51.318;6.202;2022-10-17T14:19:31;18.30;99.90
3281;DHT22;1652;51.318;6.202;2022-10-17T14:24:46;18.20;99.90
3281;DHT22;1652;51.318;6.202;2022-10-17T14:27:36;18.30;99.90
3281;DHT22;1652;51.318;6.202;2022-10-17T14:30:27;18.30;99.90
3281;DHT22;1652;51.318;6.202;2022-10-17T14:33:23;18.20;99.90
3281;DHT22;1652;51.318;6.202;2022-10-17T14:35:51;18.20;99.90
3281;DHT22;1652;51.318;6.202;2022-10-17T14:38:19;18.10;99.90
3281;DHT22;1652;51.318;6.202;2022-10-17T14:41:00;18.10;99.90
3281;DHT22;1652;51.318;6.202;2022-10-17T14:43:57;18.20;99.90
3281;DHT22;1652;51.318;6.202;2022-10-17T14:46:24;18.40;99.90
3281;DHT22;1652;51.318;6.202;2022-10-17T14:49:15;18.50;99.90
3281;DHT22;1652;51.318;6.202;2022-10-17T14:54:48;18.40;99.90
3281;DHT22;1652;51.318;6.202;2022-10-17T14:59:47;18.30;99.90
3281;DHT22;1652;51.318;6.202;2022-10-17T15:02:23;18.20;99.90
3281;DHT22;1652;51.318;6.202;2022-10-17T15:04:51;18.10;99.90
3281;DHT22;1652;51.318;6.202;2022-10-17T15:07:18;18.10;99.90
3281;DHT22;1652;51.318;6.202;2022-10-17T15:09:48;18.00;99.90
3281;DHT22;1652;51.318;6.202;2022-10-17T15:12:17;17.90;99.90
3281;DHT22;1652;51.318;6.202;2022-10-17T15:14:45;17.80;99.90
3281;DHT22;1652;51.318;6.202;2022-10-17T15:17:19;17.70;99.90
3281;DHT22;1652;51.318;6.202;2022-10-17T15:19:47;17.70;99.90
3281;DHT22;1652;51.318;6.202;2022-10-17T15:22:16;17.60;99.90
3281;DHT22;1652;51.318;6.202;2022-10-17T15:24:44;17.60;99.90
3281;DHT22;1652;51.318;6.202;2022-10-17T15:27:23;17.60;99.90
3281;DHT22;1652;51.318;6.202;2022-10-17T15:29:51;17.60;99.90
3281;DHT22;1652;51.318;6.202;2022-10-17T15:32:18;17.60;99.90
3281;DHT22;1652;51.318;6.202;2022-10-17T15:34:45;17.60;99.90
3281;DHT22;1652;51.318;6.202;2022-10-17T15:37:16;17.60;99.90
3281;DHT22;1652;51.318;6.202;2022-10-17T15:39:47;17.60;99.90
3281;DHT22;1652;51.318;6.202;2022-10-17T15:42:25;17.50;99.90
3281;DHT22;1652;51.318;6.202;2022-10-17T15:44:53;17.50;99.90
3281;DHT22;1652;51.318;6.202;2022-10-17T15:47:28;17.50;99.90
3281;DHT22;1652;51.318;6.202;2022-10-17T15:50:05;17.50;99.90
3281;DHT22;1652;51.318;6.202;2022-10-17T15:52:34;17.40;99.90
3281;DHT22;1652;51.318;6.202;2022-10-17T15:55:01;17.30;99.90
3281;DHT22;1652;51.318;6.202;2022-10-17T15:57:35;17.40;99.90
3281;DHT22;1652;51.318;6.202;2022-10-17T16:00:07;17.50;99.90
3281;DHT22;1652;51.318;6.202;2022-10-17T16:02:39;17.40;99.90
3281;DHT22;1652;51.318;6.202;2022-10-17T16:05:15;17.40;99.90
3281;DHT22;1652;51.318;6.202;2022-10-17T16:07:43;17.40;99.90
3281;DHT22;1652;51.318;6.202;2022-10-17T16:10:13;17.30;99.90
3281;DHT22;1652;51.318;6.202;2022-10-17T16:12:41;17.20;99.90
3281;DHT22;1652;51.318;6.202;2022-10-17T16:15:22;17.20;99.90
3281;DHT22;1652;51.318;6.202;2022-10-17T16:17:50;17.20;99.90
3281;DHT22;1652;51.318;6.202;2022-10-17T16:20:18;17.20;99.90
3281;DHT22;1652;51.318;6.202;2022-10-17T16:22:46;17.10;99.90
3281;DHT22;1652;51.318;6.202;2022-10-17T16:25:26;17.10;99.90
3281;DHT22;1652;51.318;6.202;2022-10-17T16:27:55;17.10;99.90
3281;DHT22;1652;51.318;6.202;2022-10-17T16:30:24;17.10;99.90
3281;DHT22;1652;51.318;6.202;2022-10-17T16:32:53;17.00;99.90
3281;DHT22;1652;51.318;6.202;2022-10-17T16:35:28;17.10;99.90
3281;DHT22;1652;51.318;6.202;2022-10-17T16:38:02;17.00;99.90
3281;DHT22;1652;51.318;6.202;2022-10-17T16:40:29;17.00;99.90
3281;DHT22;1652;51.318;6.202;2022-10-17T16:42:56;16.90;99.90
3281;DHT22;1652;51.318;6.202;2022-10-17T16:45:23;16.80;99.90
3281;DHT22;1652;51.318;6.202;2022-10-17T16:47:50;16.80;99.90
3281;DHT22;1652;51.318;6.202;2022-10-17T16:50:18;16.90;99.90
3281;DHT22;1652;51.318;6.202;2022-10-17T16:52:45;16.80;99.90
3281;DHT22;1652;51.318;6.202;2022-10-17T16:55:12;16.80;99.90
3281;DHT22;1652;51.318;6.202;2022-10-17T16:57:41;16.70;99.90
3281;DHT22;1652;51.318;6.202;2022-10-17T17:00:11;16.70;99.90
3281;DHT22;1652;51.318;6.202;2022-10-17T17:02:39;16.60;99.90
3281;DHT22;1652;51.318;6.202;2022-10-17T17:05:06;16.60;99.90
3281;DHT22;1652;51.318;6.202;2022-10-17T17:07:34;16.60;99.90
3281;DHT22;1652;51.318;6.202;2022-10-17T17:10:01;16.50;99.90
3281;DHT22;1652;51.318;6.202;2022-10-17T17:12:28;16.60;99.90
3281;DHT22;1652;51.318;6.202;2022-10-17T17:14:54;16.60;99.90
3281;DHT22;1652;51.318;6.202;2022-10-17T17:17:21;16.60;99.90
3281;DHT22;1652;51.318;6.202;2022-10-17T17:20:08;16.60;99.90
3281;DHT22;1652;51.318;6.202;2022-10-17T17:22:35;16.60;99.90
3281;DHT22;1652;51.318;6.202;2022-10-17T17:25:02;16.50;99.90
3281;DHT22;1652;51.318;6.202;2022-10-17T17:27:28;16.50;99.90
3281;DHT22;1652;51.318;6.202;2022-10-17T17:29:56;16.50;99.90
3281;DHT22;1652;51.318;6.202;2022-10-17T17:32:22;16.40;99.90
3281;DHT22;1652;51.318;6.202;2022-10-17T17:34:49;16.40;99.90
3281;DHT22;1652;51.318;6.202;2022-10-17T17:37:16;16.30;99.90
3281;DHT22;1652;51.318;6.202;2022-10-17T17:39:43;16.30;99.90
3281;DHT22;1652;51.318;6.202;2022-10-17T17:42:10;16.30;99.90
3281;DHT22;1652;51.318;6.202;2022-10-17T17:44:37;16.30;99.90
3281;DHT22;1652;51.318;6.202;2022-10-17T17:47:04;16.30;99.90
3281;DHT22;1652;51.318;6.202;2022-10-17T17:49:30;16.30;99.90
3281;DHT22;1652;51.318;6.202;2022-10-17T17:51:57;16.30;99.90
3281;DHT22;1652;51.318;6.202;2022-10-17T17:54:24;16.30;99.90
3281;DHT22;1652;51.318;6.202;2022-10-17T17:56:51;16.30;99.90
3281;DHT22;1652;51.318;6.202;2022-10-17T17:59:18;16.30;99.90
3281;DHT22;1652;51.318;6.202;2022-10-17T18:01:45;16.20;99.90
3281;DHT22;1652;51.318;6.202;2022-10-17T18:04:12;16.20;99.90
3281;DHT22;1652;51.318;6.202;2022-10-17T18:06:39;16.20;99.90
3281;DHT22;1652;51.318;6.202;2022-10-17T18:09:07;16.30;99.90
3281;DHT22;1652;51.318;6.202;2022-10-17T18:11:35;16.30;99.90
3281;DHT22;1652;51.318;6.202;2022-10-17T18:14:05;16.30;99.90
3281;DHT22;1652;51.318;6.202;2022-10-17T18:16:34;16.30;99.90
3281;DHT22;1652;51.318;6.202;2022-10-17T18:19:04;16.30;99.90
3281;DHT22;1652;51.318;6.202;2022-10-17T18:21:33;16.30;99.90
3281;DHT22;1652;51.318;6.202;2022-10-17T18:24:00;16.30;99.90
3281;DHT22;1652;51.318;6.202;2022-10-17T18:26:27;16.30;99.90
3281;DHT22;1652;51.318;6.202;2022-10-17T18:28:54;16.30;99.90
3281;DHT22;1652;51.318;6.202;2022-10-17T18:31:22;16.30;99.90
3281;DHT22;1652;51.318;6.202;2022-10-17T18:33:53;16.30;99.90
3281;DHT22;1652;51.318;6.202;2022-10-17T18:36:21;16.30;99.90
3281;DHT22;1652;51.318;6.202;2022-10-17T18:38:48;16.30;99.90
3281;DHT22;1652;51.318;6.202;2022-10-17T18:41:19;16.30;99.90
3281;DHT22;1652;51.318;6.202;2022-10-17T18:43:47;16.20;99.90